sensor_id;sensor_type;location;lat;lon;timestamp;noise_LAeq;noise_LA_min;noise_LA_max;noise_LA01;noise_LA95
57439;Laerm;43282;47.188;8.896;2023-03-23T00:01:04;41.83;38.18;47.38;;
57439;Laerm;43282;47.188;8.896;2023-03-23T00:03:30;45.03;39.21;57.51;;
57439;Laerm;43282;47.188;8.896;2023-03-23T00:05:57;60.82;38.37;85.38;;
57439;Laerm;43282;47.188;8.896;2023-03-23T00:08:25;41.62;37.70;56.03;;
57439;Laerm;43282;47.188;8.896;2023-03-23T00:10:51;44.76;38.37;59.21;;
57439;Laerm;43282;47.188;8.896;2023-03-23T00:13:18;41.58;37.88;46.15;;
57439;Laerm;43282;47.188;8.896;2023-03-23T00:15:45;41.54;37.70;45.23;;
57439;Laerm;43282;47.188;8.896;2023-03-23T00:18:10;42.62;39.92;47.70;;
57439;Laerm;43282;47.188;8.896;2023-03-23T00:20:45;43.11;39.46;51.32;;
57439;Laerm;43282;47.188;8.896;2023-03-23T00:23:14;42.23;38.52;45.97;;
57439;Laerm;43282;47.188;8.896;2023-03-23T00:25:44;43.07;39.92;46.73;;
57439;Laerm;43282;47.188;8.896;2023-03-23T00:28:10;46.39;39.46;62.30;;
57439;Laerm;43282;47.188;8.896;2023-03-23T00:30:38;44.41;38.52;57.45;;
57439;Laerm;43282;47.188;8.896;2023-03-23T00:33:04;42.06;37.32;48.16;;
57439;Laerm;43282;47.188;8.896;2023-03-23T00:35:29;42.38;39.08;51.82;;
57439;Laerm;43282;47.188;8.896;2023-03-23T00:37:55;42.91;39.46;52.16;;
57439;Laerm;43282;47.188;8.896;2023-03-23T00:40:21;44.37;39.81;59.42;;
57439;Laerm;43282;47.188;8.896;2023-03-23T00:42:47;46.30;39.70;63.61;;
57439;Laerm;43282;47.188;8.896;2023-03-23T00:45:13;41.54;39.21;47.06;;
57439;Laerm;43282;47.188;8.896;2023-03-23T00:47:40;41.79;39.08;47.83;;
57439;Laerm;43282;47.188;8.896;2023-03-23T00:50:06;43.63;39.58;58.96;;
57439;Laerm;43282;47.188;8.896;2023-03-23T00:52:32;44.86;39.46;60.04;;
57439;Laerm;43282;47.188;8.896;2023-03-23T00:54:57;42.39;39.08;50.46;;
57439;Laerm;43282;47.188;8.896;2023-03-23T00:57:22;43.78;39.46;54.17;;
57439;Laerm;43282;47.188;8.896;2023-03-23T00:59:52;42.70;37.32;54.94;;
57439;Laerm;43282;47.188;8.896;2023-03-23T01:02:17;43.28;36.91;56.62;;
57439;Laerm;43282;47.188;8.896;2023-03-23T01:04:43;40.14;35.94;46.69;;
57439;Laerm;43282;47.188;8.896;2023-03-23T01:07:09;40.95;35.36;48.07;;
57439;Laerm;43282;47.188;8.896;2023-03-23T01:09:37;48.93;35.04;62.76;;
57439;Laerm;43282;47.188;8.896;2023-03-23T01:12:04;39.84;35.04;44.90;;
57439;Laerm;43282;47.188;8.896;2023-03-23T01:14:30;41.52;35.01;47.57;;
57439;Laerm;43282;47.188;8.896;2023-03-23T01:16:56;47.09;37.88;66.29;;
57439;Laerm;43282;47.188;8.896;2023-03-23T01:19:21;46.74;36.69;61.70;;
57439;Laerm;43282;47.188;8.896;2023-03-23T01:21:47;43.15;36.20;54.32;;
57439;Laerm;43282;47.188;8.896;2023-03-23T01:24:12;45.72;35.66;61.26;;
57439;Laerm;43282;47.188;8.896;2023-03-23T01:26:37;47.01;38.52;60.46;;
57439;Laerm;43282;47.188;8.896;2023-03-23T01:29:03;45.28;36.56;62.13;;
57439;Laerm;43282;47.188;8.896;2023-03-23T01:31:28;47.73;35.36;61.65;;
57439;Laerm;43282;47.188;8.896;2023-03-23T01:33:54;43.83;37.32;60.61;;
57439;Laerm;43282;47.188;8.896;2023-03-23T01:36:24;49.70;38.18;63.21;;
57439;Laerm;43282;47.188;8.896;2023-03-23T01:38:51;43.98;36.20;59.43;;
57439;Laerm;43282;47.188;8.896;2023-03-23T01:41:17;46.54;38.67;57.90;;
57439;Laerm;43282;47.188;8.896;2023-03-23T01:43:59;42.73;36.69;53.15;;
57439;Laerm;43282;47.188;8.896;2023-03-23T01:46:29;46.97;38.52;60.35;;
57439;Laerm;43282;47.188;8.896;2023-03-23T01:48:56;44.93;38.52;61.73;;
57439;Laerm;43282;47.188;8.896;2023-03-23T01:51:23;44.30;36.69;61.42;;
57439;Laerm;43282;47.188;8.896;2023-03-23T01:53:54;46.25;36.20;61.80;;
57439;Laerm;43282;47.188;8.896;2023-03-23T01:56:21;39.08;33.44;48.61;;
57439;Laerm;43282;47.188;8.896;2023-03-23T01:58:49;47.90;38.67;61.79;;
57439;Laerm;43282;47.188;8.896;2023-03-23T02:01:15;44.78;37.32;58.69;;
57439;Laerm;43282;47.188;8.896;2023-03-23T02:03:41;44.39;37.32;55.84;;
57439;Laerm;43282;47.188;8.896;2023-03-23T02:06:08;42.59;36.45;59.37;;
57439;Laerm;43282;47.188;8.896;2023-03-23T02:08:33;45.62;37.32;59.50;;
57439;Laerm;43282;47.188;8.896;2023-03-23T02:11:00;43.32;35.94;54.45;;
57439;Laerm;43282;47.188;8.896;2023-03-23T02:13:26;45.01;35.94;56.92;;
57439;Laerm;43282;47.188;8.896;2023-03-23T02:33:29;41.94;37.32;50.66;;
57439;Laerm;43282;47.188;8.896;2023-03-23T02:35:58;42.08;37.88;46.57;;
57439;Laerm;43282;47.188;8.896;2023-03-23T02:41:08;45.07;38.05;55.75;;
57439;Laerm;43282;47.188;8.896;2023-03-23T02:43:40;42.13;36.45;47.02;;
57439;Laerm;43282;47.188;8.896;2023-03-23T02:46:07;46.65;37.70;64.06;;
57439;Laerm;43282;47.188;8.896;2023-03-23T02:48:33;45.90;38.52;62.57;;
57439;Laerm;43282;47.188;8.896;2023-03-23T02:51:00;42.59;39.70;48.42;;
57439;Laerm;43282;47.188;8.896;2023-03-23T02:53:26;42.26;37.88;46.73;;
57439;Laerm;43282;47.188;8.896;2023-03-23T02:55:54;47.06;40.53;60.70;;
57439;Laerm;43282;47.188;8.896;2023-03-23T02:58:20;44.25;40.33;57.14;;
57439;Laerm;43282;47.188;8.896;2023-03-23T03:00:48;45.09;40.43;59.01;;
57439;Laerm;43282;47.188;8.896;2023-03-23T03:03:15;44.54;40.23;56.74;;
57439;Laerm;43282;47.188;8.896;2023-03-23T03:11:11;45.79;39.46;57.30;;
57439;Laerm;43282;47.188;8.896;2023-03-23T03:18:50;49.91;39.92;64.97;;
57439;Laerm;43282;47.188;8.896;2023-03-23T03:21:17;48.76;38.81;61.13;;
57439;Laerm;43282;47.188;8.896;2023-03-23T03:23:45;46.38;37.32;60.68;;
57439;Laerm;43282;47.188;8.896;2023-03-23T03:26:14;46.33;37.12;63.34;;
57439;Laerm;43282;47.188;8.896;2023-03-23T03:28:43;50.00;39.70;61.74;;
57439;Laerm;43282;47.188;8.896;2023-03-23T03:31:12;52.08;42.09;64.62;;
57439;Laerm;43282;47.188;8.896;2023-03-23T03:33:38;50.40;40.13;63.36;;
57439;Laerm;43282;47.188;8.896;2023-03-23T03:36:04;48.25;39.92;64.32;;
57439;Laerm;43282;47.188;8.896;2023-03-23T03:38:41;51.94;42.41;66.36;;
57439;Laerm;43282;47.188;8.896;2023-03-23T03:41:06;52.26;39.21;66.91;;
57439;Laerm;43282;47.188;8.896;2023-03-23T03:43:31;52.98;43.86;64.27;;
57439;Laerm;43282;47.188;8.896;2023-03-23T03:45:57;51.96;41.30;66.71;;
57439;Laerm;43282;47.188;8.896;2023-03-23T03:48:22;53.57;41.89;69.61;;
57439;Laerm;43282;47.188;8.896;2023-03-23T03:50:47;49.11;39.92;61.78;;
57439;Laerm;43282;47.188;8.896;2023-03-23T03:53:12;55.05;43.24;69.93;;
57439;Laerm;43282;47.188;8.896;2023-03-23T03:55:38;54.33;42.35;63.84;;
57439;Laerm;43282;47.188;8.896;2023-03-23T03:58:03;51.38;39.08;64.56;;
57439;Laerm;43282;47.188;8.896;2023-03-23T04:00:29;54.40;44.76;74.84;;
57439;Laerm;43282;47.188;8.896;2023-03-23T04:02:54;54.79;43.09;64.25;;
57439;Laerm;43282;47.188;8.896;2023-03-23T04:05:20;50.53;43.54;61.21;;
57439;Laerm;43282;47.188;8.896;2023-03-23T04:07:46;54.48;42.29;70.49;;
57439;Laerm;43282;47.188;8.896;2023-03-23T04:10:14;55.59;43.90;69.24;;
57439;Laerm;43282;47.188;8.896;2023-03-23T04:12:39;59.02;45.14;72.79;;
57439;Laerm;43282;47.188;8.896;2023-03-23T04:15:05;55.36;45.54;67.06;;
57439;Laerm;43282;47.188;8.896;2023-03-23T04:17:31;54.04;43.90;66.04;;
57439;Laerm;43282;47.188;8.896;2023-03-23T04:19:56;56.20;44.62;73.14;;
57439;Laerm;43282;47.188;8.896;2023-03-23T04:22:22;53.32;44.69;63.35;;
57439;Laerm;43282;47.188;8.896;2023-03-23T04:24:49;55.58;42.98;66.00;;
57439;Laerm;43282;47.188;8.896;2023-03-23T04:27:16;56.52;46.45;67.73;;
57439;Laerm;43282;47.188;8.896;2023-03-23T04:29:42;57.85;46.91;70.78;;
57439;Laerm;43282;47.188;8.896;2023-03-23T04:32:07;56.68;48.18;65.04;;
57439;Laerm;43282;47.188;8.896;2023-03-23T04:34:32;58.63;47.26;68.96;;
57439;Laerm;43282;47.188;8.896;2023-03-23T04:37:00;56.84;48.41;65.19;;
57439;Laerm;43282;47.188;8.896;2023-03-23T04:39:25;57.05;46.30;67.87;;
57439;Laerm;43282;47.188;8.896;2023-03-23T04:41:53;56.90;47.26;66.91;;
57439;Laerm;43282;47.188;8.896;2023-03-23T04:44:19;58.11;47.95;67.82;;
57439;Laerm;43282;47.188;8.896;2023-03-23T04:46:46;58.81;50.49;69.64;;
57439;Laerm;43282;47.188;8.896;2023-03-23T04:49:14;66.31;51.33;83.67;;
57439;Laerm;43282;47.188;8.896;2023-03-23T04:51:40;59.08;50.94;65.64;;
57439;Laerm;43282;47.188;8.896;2023-03-23T04:54:05;62.16;48.21;78.47;;
57439;Laerm;43282;47.188;8.896;2023-03-23T04:56:30;59.14;50.98;67.10;;
57439;Laerm;43282;47.188;8.896;2023-03-23T04:58:56;59.78;51.47;67.01;;
57439;Laerm;43282;47.188;8.896;2023-03-23T05:01:21;59.83;51.33;69.42;;
57439;Laerm;43282;47.188;8.896;2023-03-23T05:03:46;60.32;50.08;68.54;;
57439;Laerm;43282;47.188;8.896;2023-03-23T05:06:12;59.40;52.93;67.76;;
57439;Laerm;43282;47.188;8.896;2023-03-23T05:08:38;60.26;53.08;71.44;;
57439;Laerm;43282;47.188;8.896;2023-03-23T05:11:04;60.15;52.92;66.66;;
57439;Laerm;43282;47.188;8.896;2023-03-23T05:13:30;60.38;54.02;68.17;;
57439;Laerm;43282;47.188;8.896;2023-03-23T05:15:56;62.36;53.34;76.80;;
57439;Laerm;43282;47.188;8.896;2023-03-23T05:18:21;61.25;52.62;72.46;;
57439;Laerm;43282;47.188;8.896;2023-03-23T05:20:46;61.02;54.28;72.23;;
57439;Laerm;43282;47.188;8.896;2023-03-23T05:23:12;60.10;53.69;70.01;;
57439;Laerm;43282;47.188;8.896;2023-03-23T05:25:37;62.78;56.66;77.48;;
57439;Laerm;43282;47.188;8.896;2023-03-23T05:28:06;66.45;54.59;82.86;;
57439;Laerm;43282;47.188;8.896;2023-03-23T05:30:31;61.03;54.69;67.41;;
57439;Laerm;43282;47.188;8.896;2023-03-23T05:32:56;62.38;55.60;71.51;;
57439;Laerm;43282;47.188;8.896;2023-03-23T05:35:22;64.25;55.48;77.75;;
57439;Laerm;43282;47.188;8.896;2023-03-23T05:37:47;61.34;52.42;73.87;;
57439;Laerm;43282;47.188;8.896;2023-03-23T05:40:13;60.11;53.22;67.66;;
57439;Laerm;43282;47.188;8.896;2023-03-23T05:42:39;60.62;53.59;69.73;;
57439;Laerm;43282;47.188;8.896;2023-03-23T05:45:06;62.37;54.89;76.63;;
57439;Laerm;43282;47.188;8.896;2023-03-23T05:47:32;62.71;56.15;71.94;;
57439;Laerm;43282;47.188;8.896;2023-03-23T05:49:57;61.40;53.07;70.00;;
57439;Laerm;43282;47.188;8.896;2023-03-23T05:52:23;64.69;54.79;78.65;;
57439;Laerm;43282;47.188;8.896;2023-03-23T05:54:49;63.68;57.01;73.52;;
57439;Laerm;43282;47.188;8.896;2023-03-23T05:57:15;63.05;56.70;73.53;;
57439;Laerm;43282;47.188;8.896;2023-03-23T05:59:40;62.06;56.01;68.90;;
57439;Laerm;43282;47.188;8.896;2023-03-23T06:02:05;63.36;56.33;73.99;;
57439;Laerm;43282;47.188;8.896;2023-03-23T06:04:31;61.81;55.15;74.02;;
57439;Laerm;43282;47.188;8.896;2023-03-23T06:06:59;62.79;56.31;70.46;;
57439;Laerm;43282;47.188;8.896;2023-03-23T06:09:24;62.60;54.62;71.10;;
57439;Laerm;43282;47.188;8.896;2023-03-23T06:11:50;62.37;55.22;77.11;;
57439;Laerm;43282;47.188;8.896;2023-03-23T06:14:15;63.18;55.58;73.96;;
57439;Laerm;43282;47.188;8.896;2023-03-23T06:16:42;62.50;54.44;70.35;;
57439;Laerm;43282;47.188;8.896;2023-03-23T06:19:07;62.35;55.63;71.81;;
57439;Laerm;43282;47.188;8.896;2023-03-23T06:21:33;61.51;55.28;69.41;;
57439;Laerm;43282;47.188;8.896;2023-03-23T06:23:59;60.55;54.14;66.74;;
57439;Laerm;43282;47.188;8.896;2023-03-23T06:26:30;62.44;51.53;76.09;;
57439;Laerm;43282;47.188;8.896;2023-03-23T06:28:56;57.18;47.63;65.78;;
57439;Laerm;43282;47.188;8.896;2023-03-23T06:31:22;58.06;47.32;70.30;;
57439;Laerm;43282;47.188;8.896;2023-03-23T06:33:48;57.19;45.36;66.78;;
57439;Laerm;43282;47.188;8.896;2023-03-23T06:36:13;55.66;45.25;64.63;;
57439;Laerm;43282;47.188;8.896;2023-03-23T06:38:38;59.18;47.52;73.06;;
57439;Laerm;43282;47.188;8.896;2023-03-23T06:41:04;61.50;47.08;76.06;;
57439;Laerm;43282;47.188;8.896;2023-03-23T06:43:29;59.42;46.38;72.39;;
57439;Laerm;43282;47.188;8.896;2023-03-23T06:45:58;59.12;45.48;74.86;;
57439;Laerm;43282;47.188;8.896;2023-03-23T06:48:23;60.08;47.91;74.88;;
57439;Laerm;43282;47.188;8.896;2023-03-23T06:50:49;67.02;44.23;82.93;;
57439;Laerm;43282;47.188;8.896;2023-03-23T06:53:14;60.02;43.72;74.14;;
57439;Laerm;43282;47.188;8.896;2023-03-23T06:55:42;61.76;45.75;81.58;;
57439;Laerm;43282;47.188;8.896;2023-03-23T06:58:08;56.52;47.10;65.33;;
57439;Laerm;43282;47.188;8.896;2023-03-23T07:00:33;59.78;44.35;74.51;;
57439;Laerm;43282;47.188;8.896;2023-03-23T07:02:59;61.23;45.99;73.43;;
57439;Laerm;43282;47.188;8.896;2023-03-23T07:05:24;59.79;45.48;77.32;;
57439;Laerm;43282;47.188;8.896;2023-03-23T07:07:50;59.71;46.69;73.28;;
57439;Laerm;43282;47.188;8.896;2023-03-23T07:10:16;57.26;46.59;69.93;;
57439;Laerm;43282;47.188;8.896;2023-03-23T07:12:41;59.58;43.64;74.63;;
57439;Laerm;43282;47.188;8.896;2023-03-23T07:15:07;62.98;43.86;79.38;;
57439;Laerm;43282;47.188;8.896;2023-03-23T07:17:35;59.94;45.01;73.17;;
57439;Laerm;43282;47.188;8.896;2023-03-23T07:20:00;59.78;43.81;77.20;;
57439;Laerm;43282;47.188;8.896;2023-03-23T07:22:26;60.31;43.63;76.20;;
57439;Laerm;43282;47.188;8.896;2023-03-23T07:24:51;56.41;42.53;70.73;;
57439;Laerm;43282;47.188;8.896;2023-03-23T07:27:16;57.77;44.73;71.56;;
57439;Laerm;43282;47.188;8.896;2023-03-23T07:29:42;68.80;44.76;85.24;;
57439;Laerm;43282;47.188;8.896;2023-03-23T07:32:10;61.26;45.28;76.91;;
57439;Laerm;43282;47.188;8.896;2023-03-23T07:34:36;61.26;43.72;75.41;;
57439;Laerm;43282;47.188;8.896;2023-03-23T07:37:02;59.49;43.39;73.44;;
57439;Laerm;43282;47.188;8.896;2023-03-23T07:39:27;63.79;43.81;81.65;;
57439;Laerm;43282;47.188;8.896;2023-03-23T07:41:53;60.60;44.54;74.41;;
57439;Laerm;43282;47.188;8.896;2023-03-23T07:44:18;57.29;43.81;74.43;;
57439;Laerm;43282;47.188;8.896;2023-03-23T07:46:43;57.20;44.87;69.92;;
57439;Laerm;43282;47.188;8.896;2023-03-23T07:49:09;63.77;45.14;77.58;;
57439;Laerm;43282;47.188;8.896;2023-03-23T07:51:35;63.20;44.97;77.06;;
57439;Laerm;43282;47.188;8.896;2023-03-23T07:54:03;58.69;44.94;71.59;;
57439;Laerm;43282;47.188;8.896;2023-03-23T07:56:29;61.21;44.15;75.81;;
57439;Laerm;43282;47.188;8.896;2023-03-23T07:58:55;61.11;42.59;75.19;;
57439;Laerm;43282;47.188;8.896;2023-03-23T08:01:21;61.68;45.60;76.18;;
57439;Laerm;43282;47.188;8.896;2023-03-23T08:03:48;58.93;44.62;76.34;;
57439;Laerm;43282;47.188;8.896;2023-03-23T08:06:13;52.17;43.14;62.85;;
57439;Laerm;43282;47.188;8.896;2023-03-23T08:08:40;59.38;44.27;75.97;;
57439;Laerm;43282;47.188;8.896;2023-03-23T08:11:06;62.60;43.24;79.03;;
57439;Laerm;43282;47.188;8.896;2023-03-23T08:13:31;58.16;43.86;73.46;;
57439;Laerm;43282;47.188;8.896;2023-03-23T08:15:58;59.73;45.91;72.71;;
57439;Laerm;43282;47.188;8.896;2023-03-23T08:18:23;58.65;44.62;72.43;;
57439;Laerm;43282;47.188;8.896;2023-03-23T08:20:50;59.81;44.15;75.81;;
57439;Laerm;43282;47.188;8.896;2023-03-23T08:23:15;60.21;44.87;73.60;;
57439;Laerm;43282;47.188;8.896;2023-03-23T08:25:41;62.97;43.14;78.19;;
57439;Laerm;43282;47.188;8.896;2023-03-23T08:28:07;61.97;44.54;76.88;;
57439;Laerm;43282;47.188;8.896;2023-03-23T08:30:34;55.32;44.15;65.99;;
57439;Laerm;43282;47.188;8.896;2023-03-23T08:33:01;55.68;43.85;69.93;;
57439;Laerm;43282;47.188;8.896;2023-03-23T08:35:27;66.56;45.77;82.54;;
57439;Laerm;43282;47.188;8.896;2023-03-23T08:37:53;63.79;44.31;77.06;;
57439;Laerm;43282;47.188;8.896;2023-03-23T08:40:20;64.06;43.72;78.92;;
57439;Laerm;43282;47.188;8.896;2023-03-23T08:42:46;55.76;43.09;68.21;;
57439;Laerm;43282;47.188;8.896;2023-03-23T08:45:13;59.49;43.04;76.32;;
57439;Laerm;43282;47.188;8.896;2023-03-23T08:47:40;57.38;45.39;69.24;;
57439;Laerm;43282;47.188;8.896;2023-03-23T08:50:06;53.81;43.09;64.90;;
57439;Laerm;43282;47.188;8.896;2023-03-23T08:52:31;63.54;44.43;80.06;;
57439;Laerm;43282;47.188;8.896;2023-03-23T08:54:57;61.24;46.66;76.55;;
57439;Laerm;43282;47.188;8.896;2023-03-23T08:57:23;57.68;45.80;67.59;;
57439;Laerm;43282;47.188;8.896;2023-03-23T08:59:49;63.93;44.54;78.79;;
57439;Laerm;43282;47.188;8.896;2023-03-23T09:02:14;61.15;45.42;78.70;;
57439;Laerm;43282;47.188;8.896;2023-03-23T09:04:41;59.59;44.69;75.52;;
57439;Laerm;43282;47.188;8.896;2023-03-23T09:07:10;58.04;44.43;73.15;;
57439;Laerm;43282;47.188;8.896;2023-03-23T09:09:37;63.08;44.62;78.82;;
57439;Laerm;43282;47.188;8.896;2023-03-23T09:12:04;61.30;43.99;76.67;;
57439;Laerm;43282;47.188;8.896;2023-03-23T09:14:30;57.23;43.39;76.46;;
57439;Laerm;43282;47.188;8.896;2023-03-23T09:16:55;58.69;44.39;76.29;;
57439;Laerm;43282;47.188;8.896;2023-03-23T09:19:20;56.93;44.35;72.98;;
57439;Laerm;43282;47.188;8.896;2023-03-23T09:21:46;61.50;45.01;76.53;;
57439;Laerm;43282;47.188;8.896;2023-03-23T09:24:11;57.10;45.30;68.51;;
57439;Laerm;43282;47.188;8.896;2023-03-23T09:26:37;57.42;45.23;72.90;;
57439;Laerm;43282;47.188;8.896;2023-03-23T09:29:02;61.50;47.22;76.46;;
57439;Laerm;43282;47.188;8.896;2023-03-23T09:31:27;56.19;44.94;68.15;;
57439;Laerm;43282;47.188;8.896;2023-03-23T09:33:53;59.32;47.06;75.75;;
57439;Laerm;43282;47.188;8.896;2023-03-23T09:36:21;56.12;46.76;65.01;;
57439;Laerm;43282;47.188;8.896;2023-03-23T09:38:46;60.86;46.97;77.07;;
57439;Laerm;43282;47.188;8.896;2023-03-23T09:53:42;59.78;50.07;76.13;;
57439;Laerm;43282;47.188;8.896;2023-03-23T09:56:12;60.03;49.53;74.34;;
57439;Laerm;43282;47.188;8.896;2023-03-23T10:01:47;59.80;51.68;69.18;;
57439;Laerm;43282;47.188;8.896;2023-03-23T10:04:15;59.93;52.17;69.74;;
57439;Laerm;43282;47.188;8.896;2023-03-23T10:06:42;60.19;49.00;73.69;;
57439;Laerm;43282;47.188;8.896;2023-03-23T10:09:13;60.95;48.94;74.50;;
57439;Laerm;43282;47.188;8.896;2023-03-23T10:14:20;57.36;50.64;67.64;;
57439;Laerm;43282;47.188;8.896;2023-03-23T10:22:18;58.70;49.30;68.60;;
57439;Laerm;43282;47.188;8.896;2023-03-23T10:35:19;59.68;45.80;76.99;;
57439;Laerm;43282;47.188;8.896;2023-03-23T10:37:50;57.07;45.57;68.26;;
57439;Laerm;43282;47.188;8.896;2023-03-23T10:40:23;59.00;45.11;75.41;;
57439;Laerm;43282;47.188;8.896;2023-03-23T10:42:51;59.48;45.48;75.50;;
57439;Laerm;43282;47.188;8.896;2023-03-23T10:45:21;58.28;45.30;69.32;;
57439;Laerm;43282;47.188;8.896;2023-03-23T10:47:49;57.45;45.20;71.03;;
57439;Laerm;43282;47.188;8.896;2023-03-23T10:50:18;56.84;45.14;68.55;;
57439;Laerm;43282;47.188;8.896;2023-03-23T10:52:46;62.73;45.20;80.87;;
57439;Laerm;43282;47.188;8.896;2023-03-23T10:55:19;55.65;44.27;68.00;;
57439;Laerm;43282;47.188;8.896;2023-03-23T10:57:46;59.64;43.63;75.57;;
57439;Laerm;43282;47.188;8.896;2023-03-23T11:00:21;58.07;44.94;68.59;;
57439;Laerm;43282;47.188;8.896;2023-03-23T11:05:37;58.16;43.68;69.99;;
57439;Laerm;43282;47.188;8.896;2023-03-23T11:08:10;60.33;41.53;78.47;;
57439;Laerm;43282;47.188;8.896;2023-03-23T11:10:38;56.33;44.19;71.30;;
57439;Laerm;43282;47.188;8.896;2023-03-23T11:13:04;59.05;43.94;78.69;;
57439;Laerm;43282;47.188;8.896;2023-03-23T11:15:36;63.09;45.57;86.54;;
57439;Laerm;43282;47.188;8.896;2023-03-23T11:18:21;60.21;44.94;77.77;;
57439;Laerm;43282;47.188;8.896;2023-03-23T11:20:49;61.21;44.90;90.32;;
57439;Laerm;43282;47.188;8.896;2023-03-23T11:25:51;54.51;44.35;68.42;;
57439;Laerm;43282;47.188;8.896;2023-03-23T11:28:18;54.19;44.51;64.41;;
57439;Laerm;43282;47.188;8.896;2023-03-23T11:30:44;53.89;44.47;65.85;;
57439;Laerm;43282;47.188;8.896;2023-03-23T11:33:09;58.99;44.51;81.05;;
57439;Laerm;43282;47.188;8.896;2023-03-23T11:35:35;56.62;41.89;73.46;;
57439;Laerm;43282;47.188;8.896;2023-03-23T11:38:01;55.30;42.88;70.72;;
57439;Laerm;43282;47.188;8.896;2023-03-23T11:40:29;60.26;42.98;83.01;;
57439;Laerm;43282;47.188;8.896;2023-03-23T11:43:07;54.33;42.88;65.21;;
57439;Laerm;43282;47.188;8.896;2023-03-23T11:45:40;55.16;43.58;71.63;;
57439;Laerm;43282;47.188;8.896;2023-03-23T11:48:26;57.75;42.65;70.82;;
57439;Laerm;43282;47.188;8.896;2023-03-23T11:53:37;59.56;43.34;75.00;;
57439;Laerm;43282;47.188;8.896;2023-03-23T11:58:36;58.66;42.88;72.91;;
57439;Laerm;43282;47.188;8.896;2023-03-23T12:06:12;58.15;43.81;78.79;;
57439;Laerm;43282;47.188;8.896;2023-03-23T12:24:19;63.42;44.90;78.51;;
57439;Laerm;43282;47.188;8.896;2023-03-23T12:26:50;55.99;44.11;71.22;;
57439;Laerm;43282;47.188;8.896;2023-03-23T12:29:25;61.41;46.55;80.76;;
57439;Laerm;43282;47.188;8.896;2023-03-23T12:34:50;59.64;43.54;75.57;;
57439;Laerm;43282;47.188;8.896;2023-03-23T12:43:06;61.51;45.45;80.37;;
57439;Laerm;43282;47.188;8.896;2023-03-23T12:48:12;59.72;43.90;76.12;;
57439;Laerm;43282;47.188;8.896;2023-03-23T12:50:39;62.27;44.72;77.92;;
57439;Laerm;43282;47.188;8.896;2023-03-23T12:53:22;54.48;43.55;64.51;;
57439;Laerm;43282;47.188;8.896;2023-03-23T12:58:30;60.39;45.27;73.77;;
57439;Laerm;43282;47.188;8.896;2023-03-23T13:00:59;53.55;42.82;63.23;;
57439;Laerm;43282;47.188;8.896;2023-03-23T13:06:38;58.33;44.35;73.60;;
57439;Laerm;43282;47.188;8.896;2023-03-23T13:08:50;60.05;45.94;77.53;;
57439;Laerm;43282;47.188;8.896;2023-03-23T13:11:24;57.81;46.07;69.99;;
57439;Laerm;43282;47.188;8.896;2023-03-23T13:13:52;58.88;44.07;75.23;;
57439;Laerm;43282;47.188;8.896;2023-03-23T13:23:50;60.51;43.81;80.09;;
57439;Laerm;43282;47.188;8.896;2023-03-23T13:26:19;59.42;44.07;73.20;;
57439;Laerm;43282;47.188;8.896;2023-03-23T13:28:54;56.55;43.99;69.51;;
57439;Laerm;43282;47.188;8.896;2023-03-23T13:31:26;60.16;43.44;76.67;;
57439;Laerm;43282;47.188;8.896;2023-03-23T13:36:40;62.59;43.90;83.21;;
57439;Laerm;43282;47.188;8.896;2023-03-23T13:39:16;56.91;43.54;76.02;;
57439;Laerm;43282;47.188;8.896;2023-03-23T13:41:46;59.05;43.99;73.72;;
57439;Laerm;43282;47.188;8.896;2023-03-23T13:44:17;60.61;46.45;75.93;;
57439;Laerm;43282;47.188;8.896;2023-03-23T13:46:53;58.45;44.72;74.27;;
57439;Laerm;43282;47.188;8.896;2023-03-23T13:49:19;61.70;45.39;83.12;;
57439;Laerm;43282;47.188;8.896;2023-03-23T13:51:51;61.70;43.49;78.41;;
57439;Laerm;43282;47.188;8.896;2023-03-23T13:57:02;62.18;43.99;79.96;;
57439;Laerm;43282;47.188;8.896;2023-03-23T13:59:30;54.20;44.43;65.76;;
57439;Laerm;43282;47.188;8.896;2023-03-23T14:04:42;57.08;44.27;71.18;;
57439;Laerm;43282;47.188;8.896;2023-03-23T14:07:11;60.62;43.94;77.94;;
57439;Laerm;43282;47.188;8.896;2023-03-23T14:09:41;57.18;43.81;72.78;;
57439;Laerm;43282;47.188;8.896;2023-03-23T14:12:21;56.00;43.09;66.20;;
57439;Laerm;43282;47.188;8.896;2023-03-23T14:14:50;58.97;45.14;72.19;;
57439;Laerm;43282;47.188;8.896;2023-03-23T14:17:17;57.00;44.47;73.84;;
57439;Laerm;43282;47.188;8.896;2023-03-23T14:19:47;58.80;45.04;77.02;;
57439;Laerm;43282;47.188;8.896;2023-03-23T14:22:21;53.99;44.31;64.03;;
57439;Laerm;43282;47.188;8.896;2023-03-23T14:24:47;57.32;43.34;70.71;;
57439;Laerm;43282;47.188;8.896;2023-03-23T14:29:38;55.14;43.94;70.74;;
57439;Laerm;43282;47.188;8.896;2023-03-23T14:32:05;55.67;42.76;70.64;;
57439;Laerm;43282;47.188;8.896;2023-03-23T14:34:31;56.96;43.99;71.67;;
57439;Laerm;43282;47.188;8.896;2023-03-23T14:36:57;61.40;44.15;79.29;;
57439;Laerm;43282;47.188;8.896;2023-03-23T14:39:33;57.23;43.09;73.69;;
57439;Laerm;43282;47.188;8.896;2023-03-23T14:42:03;58.66;43.77;79.11;;
57439;Laerm;43282;47.188;8.896;2023-03-23T14:44:30;58.95;43.14;72.86;;
57439;Laerm;43282;47.188;8.896;2023-03-23T14:46:57;55.77;43.72;65.34;;
57439;Laerm;43282;47.188;8.896;2023-03-23T14:49:29;59.65;44.51;79.67;;
57439;Laerm;43282;47.188;8.896;2023-03-23T14:51:55;58.95;44.23;71.73;;
57439;Laerm;43282;47.188;8.896;2023-03-23T14:54:21;56.73;44.03;66.03;;
57439;Laerm;43282;47.188;8.896;2023-03-23T14:56:47;60.49;44.31;74.29;;
57439;Laerm;43282;47.188;8.896;2023-03-23T14:59:12;58.19;43.34;74.56;;
57439;Laerm;43282;47.188;8.896;2023-03-23T15:01:38;63.13;45.97;77.91;;
57439;Laerm;43282;47.188;8.896;2023-03-23T15:04:12;61.20;47.44;78.81;;
57439;Laerm;43282;47.188;8.896;2023-03-23T15:06:39;62.16;45.89;79.70;;
57439;Laerm;43282;47.188;8.896;2023-03-23T15:09:15;56.65;45.07;70.11;;
57439;Laerm;43282;47.188;8.896;2023-03-23T15:11:43;58.91;44.87;76.46;;
57439;Laerm;43282;47.188;8.896;2023-03-23T15:14:17;59.96;45.33;84.28;;
57439;Laerm;43282;47.188;8.896;2023-03-23T15:16:49;57.41;46.66;72.49;;
57439;Laerm;43282;47.188;8.896;2023-03-23T15:19:24;59.52;45.80;73.73;;
57439;Laerm;43282;47.188;8.896;2023-03-23T15:21:52;55.52;45.83;67.16;;
57439;Laerm;43282;47.188;8.896;2023-03-23T15:24:33;56.27;44.73;71.53;;
57439;Laerm;43282;47.188;8.896;2023-03-23T15:27:11;56.09;45.27;67.50;;
57439;Laerm;43282;47.188;8.896;2023-03-23T15:32:12;57.62;44.58;67.07;;
57439;Laerm;43282;47.188;8.896;2023-03-23T15:34:37;59.95;43.72;73.96;;
57439;Laerm;43282;47.188;8.896;2023-03-23T15:37:06;55.36;44.11;64.23;;
57439;Laerm;43282;47.188;8.896;2023-03-23T15:39:32;58.59;44.31;70.40;;
57439;Laerm;43282;47.188;8.896;2023-03-23T15:41:58;55.90;46.87;65.21;;
57439;Laerm;43282;47.188;8.896;2023-03-23T15:44:31;58.68;46.07;77.94;;
57439;Laerm;43282;47.188;8.896;2023-03-23T15:47:33;60.72;51.43;69.29;;
57439;Laerm;43282;47.188;8.896;2023-03-23T15:49:58;58.34;45.69;77.69;;
57439;Laerm;43282;47.188;8.896;2023-03-23T15:52:23;59.50;46.52;74.10;;
57439;Laerm;43282;47.188;8.896;2023-03-23T15:54:50;56.64;45.27;67.73;;
57439;Laerm;43282;47.188;8.896;2023-03-23T15:57:15;57.00;44.43;65.41;;
57439;Laerm;43282;47.188;8.896;2023-03-23T15:59:40;57.27;44.94;68.11;;